createdAt,value
2022-07-27T00:00:47.041Z,1.92
2022-07-27T00:03:13.518Z,1.67
2022-07-27T00:05:39.935Z,1.55
2022-07-27T00:08:06.900Z,2.83
2022-07-27T00:10:34.371Z,1.70
2022-07-27T00:13:00.800Z,1.55
2022-07-27T00:15:27.347Z,2.22
2022-07-27T00:17:53.767Z,2.10
2022-07-27T00:20:20.230Z,1.52
2022-07-27T00:22:54.904Z,2.10
2022-07-27T00:25:22.175Z,1.50
2022-07-27T00:27:48.730Z,1.70
2022-07-27T00:30:15.184Z,2.42
2022-07-27T00:32:41.678Z,1.75
2022-07-27T00:35:08.867Z,2.10
2022-07-27T00:37:35.320Z,2.72
2022-07-27T00:40:02.350Z,1.23
2022-07-27T00:42:28.797Z,1.50
2022-07-27T00:44:55.587Z,1.70
2022-07-27T00:47:22.492Z,1.40
2022-07-27T00:49:48.954Z,1.45
2022-07-27T00:52:15.828Z,2.08
2022-07-27T00:54:43.795Z,2.40
2022-07-27T00:57:11.491Z,1.42
2022-07-27T00:59:38.524Z,1.63
2022-07-27T01:02:11.377Z,1.33
2022-07-27T01:04:38.989Z,2.00
2022-07-27T01:07:07.195Z,1.63
2022-07-27T01:09:53.115Z,1.80
2022-07-27T01:12:20.912Z,1.67
2022-07-27T01:14:49.200Z,1.70
2022-07-27T01:17:16.759Z,1.77
2022-07-27T01:19:44.404Z,1.67
2022-07-27T01:22:11.588Z,1.98
2022-07-27T01:24:38.347Z,2.22
2022-07-27T01:27:06.022Z,1.48
2022-07-27T01:29:33.684Z,1.77
2022-07-27T01:32:01.597Z,1.92
2022-07-27T01:34:28.060Z,1.60
2022-07-27T01:36:54.540Z,1.95
2022-07-27T01:39:21.089Z,1.75
2022-07-27T01:41:47.537Z,1.80
2022-07-27T01:44:14.253Z,2.15
2022-07-27T01:46:40.820Z,2.08
2022-07-27T01:49:07.427Z,1.42
2022-07-27T01:51:33.903Z,1.60
2022-07-27T01:54:00.374Z,1.98
2022-07-27T01:56:27.045Z,1.70
2022-07-27T01:58:53.526Z,1.70
2022-07-27T02:01:19.981Z,2.60
2022-07-27T02:03:46.511Z,2.03
2022-07-27T02:06:13.013Z,1.58
2022-07-27T02:08:40.023Z,2.05
2022-07-27T02:11:25.156Z,1.70
2022-07-27T02:13:51.589Z,1.60
2022-07-27T02:16:18.901Z,1.48
2022-07-27T02:18:46.088Z,2.20
2022-07-27T02:21:15.303Z,1.98
2022-07-27T02:23:44.510Z,1.95
2022-07-27T02:26:11.326Z,1.80
2022-07-27T02:28:37.898Z,1.95
2022-07-27T02:31:05.037Z,1.80
2022-07-27T02:33:31.786Z,2.55
2022-07-27T02:35:58.290Z,2.15
2022-07-27T02:38:25.870Z,1.55
2022-07-27T02:40:52.546Z,1.55
2022-07-27T02:43:18.973Z,1.80
2022-07-27T02:45:46.504Z,1.58
2022-07-27T02:48:13.305Z,1.80
2022-07-27T02:50:39.766Z,1.95
2022-07-27T02:53:06.211Z,1.85
2022-07-27T02:55:32.641Z,1.80
2022-07-27T02:57:59.084Z,1.75
2022-07-27T03:00:25.798Z,1.60
2022-07-27T03:02:52.301Z,2.55
2022-07-27T03:05:18.774Z,1.60
2022-07-27T03:07:45.210Z,2.38
2022-07-27T03:10:11.680Z,1.83
2022-07-27T03:12:38.118Z,2.13
2022-07-27T03:15:05.158Z,1.80
2022-07-27T03:17:32.802Z,2.33
2022-07-27T03:19:59.336Z,1.58
2022-07-27T03:22:25.857Z,1.75
2022-07-27T03:24:52.300Z,1.48
2022-07-27T03:27:18.746Z,1.75
2022-07-27T03:29:45.850Z,1.65
2022-07-27T03:32:12.314Z,1.80
2022-07-27T03:34:38.769Z,2.03
2022-07-27T03:37:05.394Z,1.83
2022-07-27T03:39:31.852Z,2.08
2022-07-27T03:41:58.367Z,1.70
2022-07-27T03:44:24.779Z,1.88
2022-07-27T03:46:51.209Z,2.03
2022-07-27T03:49:17.894Z,1.80
2022-07-27T03:51:44.424Z,2.33
2022-07-27T03:54:10.850Z,1.70
2022-07-27T03:56:37.263Z,1.80
2022-07-27T03:59:03.809Z,1.65
2022-07-27T04:01:30.334Z,1.48
2022-07-27T04:03:56.879Z,1.60
2022-07-27T04:06:23.375Z,2.17
2022-07-27T04:08:50.772Z,2.08
2022-07-27T04:11:20.348Z,1.83
2022-07-27T04:13:50.978Z,1.70
2022-07-27T04:16:17.615Z,1.83
2022-07-27T04:18:44.078Z,1.88
2022-07-27T04:21:10.629Z,2.42
2022-07-27T04:23:38.436Z,1.85
2022-07-27T04:26:05.119Z,1.83
2022-07-27T04:28:32.606Z,1.60
2022-07-27T04:30:59.291Z,1.50
2022-07-27T04:33:25.788Z,2.42
2022-07-27T04:35:52.231Z,1.55
2022-07-27T04:38:18.666Z,2.35
2022-07-27T04:40:45.092Z,1.50
2022-07-27T04:43:11.502Z,2.05
2022-07-27T04:45:38.905Z,2.92
2022-07-27T04:48:09.310Z,1.90
2022-07-27T04:50:40.877Z,1.77
2022-07-27T04:53:08.192Z,1.70
2022-07-27T04:55:34.640Z,1.65
2022-07-27T04:58:01.084Z,1.75
2022-07-27T05:00:27.597Z,2.05
2022-07-27T05:02:54.784Z,1.88
2022-07-27T05:05:21.427Z,1.90
2022-07-27T05:07:47.879Z,2.38
2022-07-27T05:10:19.491Z,2.20
2022-07-27T05:12:46.807Z,2.33
2022-07-27T05:15:13.266Z,1.80
2022-07-27T05:17:39.830Z,2.22
2022-07-27T05:20:06.757Z,2.20
2022-07-27T05:22:37.541Z,1.73
2022-07-27T05:25:06.554Z,1.70
2022-07-27T05:27:33.030Z,2.08
2022-07-27T05:29:59.478Z,1.60
2022-07-27T05:32:25.915Z,2.35
2022-07-27T05:34:52.353Z,1.67
2022-07-27T05:37:18.857Z,2.13
2022-07-27T05:39:45.304Z,2.05
2022-07-27T05:42:11.727Z,1.52
2022-07-27T05:44:38.163Z,2.95
2022-07-27T05:47:05.982Z,2.42
2022-07-27T05:49:32.956Z,1.73
2022-07-27T05:51:59.380Z,1.90
2022-07-27T05:54:25.806Z,1.70
2022-07-27T05:56:52.592Z,2.28
2022-07-27T05:59:19.100Z,2.42
2022-07-27T06:01:45.542Z,1.45
2022-07-27T06:04:14.550Z,1.75
2022-07-27T06:06:59.758Z,1.40
2022-07-27T06:09:26.196Z,2.28
2022-07-27T06:11:52.679Z,1.88
2022-07-27T06:14:19.260Z,1.92
2022-07-27T06:16:45.806Z,1.65
2022-07-27T06:19:12.664Z,1.77
2022-07-27T06:21:39.325Z,1.60
2022-07-27T06:24:06.120Z,2.13
2022-07-27T06:26:32.597Z,1.70
2022-07-27T06:29:01.086Z,2.00
2022-07-27T06:31:28.408Z,1.83
2022-07-27T06:34:02.202Z,1.50
2022-07-27T06:36:28.644Z,1.92
2022-07-27T06:38:55.140Z,1.70
2022-07-27T06:41:21.599Z,2.45
2022-07-27T06:43:48.090Z,1.90
2022-07-27T06:46:14.576Z,1.67
2022-07-27T06:48:41.608Z,1.40
2022-07-27T06:51:08.674Z,2.40
2022-07-27T06:53:36.255Z,1.23
2022-07-27T06:56:04.098Z,2.58
2022-07-27T06:58:35.064Z,2.20
2022-07-27T07:03:29.779Z,1.92
2022-07-27T07:05:57.183Z,1.92
2022-07-27T07:08:23.614Z,2.15
2022-07-27T07:10:50.737Z,1.48
2022-07-27T07:13:17.146Z,1.70
2022-07-27T07:15:43.753Z,1.42
2022-07-27T07:18:11.507Z,2.22
2022-07-27T07:20:38.307Z,1.70
2022-07-27T07:23:05.475Z,2.13
2022-07-27T07:25:32.936Z,1.50
2022-07-27T07:27:59.880Z,1.30
2022-07-27T07:30:27.320Z,1.75
2022-07-27T07:32:53.813Z,1.63
2022-07-27T07:35:20.247Z,1.83
2022-07-27T07:37:49.755Z,1.77
2022-07-27T07:40:43.217Z,1.27
2022-07-27T07:43:05.818Z,1.73
2022-07-27T07:45:35.418Z,1.25
2022-07-27T07:48:01.840Z,2.30
2022-07-27T07:50:28.456Z,1.30
2022-07-27T07:52:55.261Z,1.40
2022-07-27T07:55:31.260Z,1.60
2022-07-27T07:57:59.887Z,1.75
2022-07-27T08:00:26.333Z,1.85
2022-07-27T08:02:55.196Z,1.30
2022-07-27T08:05:21.981Z,1.10
2022-07-27T08:07:49.611Z,1.63
2022-07-27T08:10:17.416Z,1.42
2022-07-27T08:12:47.364Z,1.30
2022-07-27T08:15:14.911Z,1.33
2022-07-27T08:17:43.106Z,1.42
2022-07-27T08:20:10.448Z,1.77
2022-07-27T08:22:36.859Z,2.20
2022-07-27T08:25:04.315Z,1.48
2022-07-27T08:27:30.779Z,1.33
2022-07-27T08:30:09.047Z,1.27
2022-07-27T08:32:59.721Z,1.63
2022-07-27T08:35:29.962Z,1.37
2022-07-27T08:37:57.129Z,1.70
2022-07-27T08:43:11.502Z,1.05
2022-07-27T08:45:38.516Z,1.50
2022-07-27T08:48:05.949Z,1.63
2022-07-27T08:50:34.724Z,1.08
2022-07-27T08:53:07.341Z,1.42
2022-07-27T08:55:36.262Z,1.90
2022-07-27T08:58:04.107Z,1.00
2022-07-27T09:00:31.683Z,1.30
2022-07-27T09:02:58.325Z,1.52
2022-07-27T09:05:25.059Z,1.20
2022-07-27T09:07:54.122Z,1.10
2022-07-27T09:10:32.327Z,1.52
2022-07-27T09:12:59.076Z,1.60
2022-07-27T09:15:34.177Z,1.40
2022-07-27T09:18:16.146Z,1.45
2022-07-27T09:20:42.621Z,1.15
2022-07-27T09:23:09.087Z,1.58
2022-07-27T09:26:02.279Z,1.77
2022-07-27T09:28:30.218Z,1.30
2022-07-27T09:31:05.804Z,1.42
2022-07-27T09:33:33.797Z,1.13
2022-07-27T09:36:00.481Z,1.20
2022-07-27T09:38:26.925Z,1.08
2022-07-27T09:41:00.864Z,1.40
2022-07-27T09:46:16.264Z,1.13
2022-07-27T09:48:42.988Z,1.73
2022-07-27T09:51:55.784Z,1.35
2022-07-27T09:54:05.808Z,1.35
2022-07-27T09:56:32.811Z,1.40
2022-07-27T09:59:00.995Z,1.42
2022-07-27T10:01:30.201Z,1.85
2022-07-27T10:04:00.389Z,1.60
2022-07-27T10:06:28.029Z,1.90
2022-07-27T10:08:55.929Z,1.40
2022-07-27T10:11:23.666Z,1.67
2022-07-27T10:13:52.576Z,1.17
2022-07-27T10:16:22.167Z,1.40
2022-07-27T10:19:15.339Z,1.33
2022-07-27T10:21:45.240Z,1.95
2022-07-27T10:24:24.215Z,1.58
2022-07-27T10:26:50.680Z,1.27
2022-07-27T10:29:23.469Z,1.67
2022-07-27T10:31:52.569Z,1.35
2022-07-27T10:34:43.975Z,2.97
2022-07-27T10:37:14.840Z,1.42
2022-07-27T10:42:30.728Z,2.60
2022-07-27T10:44:59.859Z,1.40
2022-07-27T10:47:32.329Z,1.58
2022-07-27T10:50:16.954Z,1.40
2022-07-27T10:52:45.372Z,1.38
2022-07-27T10:55:42.642Z,1.40
2022-07-27T10:58:09.009Z,1.30
2022-07-27T11:00:54.757Z,1.20
2022-07-27T11:03:28.340Z,1.55
2022-07-27T11:06:03.281Z,1.10
2022-07-27T11:08:47.269Z,1.48
2022-07-27T11:11:19.942Z,1.50
2022-07-27T11:13:49.427Z,1.77
2022-07-27T11:16:25.908Z,1.20
2022-07-27T11:19:03.830Z,1.25
2022-07-27T11:21:36.487Z,1.58
2022-07-27T11:24:14.575Z,1.60
2022-07-27T11:26:50.101Z,1.80
2022-07-27T11:29:18.943Z,1.48
2022-07-27T11:31:56.340Z,1.67
2022-07-27T11:34:31.828Z,1.50
2022-07-27T11:37:02.096Z,1.35
2022-07-27T11:42:21.739Z,1.80
2022-07-27T11:44:52.610Z,1.52
2022-07-27T11:47:21.441Z,1.45
2022-07-27T11:49:47.935Z,1.85
2022-07-27T11:52:17.292Z,1.30
2022-07-27T11:54:43.742Z,1.45
2022-07-27T11:57:16.322Z,1.10
2022-07-27T11:59:44.629Z,1.45
2022-07-27T12:02:17.917Z,1.45
2022-07-27T12:04:46.578Z,2.30
2022-07-27T12:07:17.075Z,1.35
2022-07-27T12:09:48.667Z,1.05
2022-07-27T12:12:19.006Z,1.58
2022-07-27T12:14:51.304Z,1.10
2022-07-27T12:17:31.608Z,1.73
2022-07-27T12:20:00.271Z,1.58
2022-07-27T12:22:33.238Z,1.45
2022-07-27T12:25:01.904Z,1.27
2022-07-27T12:27:28.981Z,1.40
2022-07-27T12:29:56.456Z,1.42
2022-07-27T12:32:23.353Z,1.50
2022-07-27T12:34:49.788Z,1.63
2022-07-27T12:37:16.245Z,1.48
2022-07-27T12:39:44.165Z,1.38
2022-07-27T12:42:11.151Z,0.82
2022-07-27T12:44:41.276Z,1.52
2022-07-27T12:47:28.229Z,1.67
2022-07-27T12:50:15.707Z,1.63
2022-07-27T12:52:51.875Z,1.33
2022-07-27T12:55:20.453Z,1.50
2022-07-27T12:57:56.502Z,1.33
2022-07-27T13:00:29.405Z,1.58
2022-07-27T13:03:00.916Z,1.58
2022-07-27T13:05:27.433Z,1.35
2022-07-27T13:07:53.966Z,2.47
2022-07-27T13:10:20.510Z,2.17
2022-07-27T13:12:47.833Z,1.92
2022-07-27T13:15:15.215Z,2.08
2022-07-27T13:17:42.627Z,1.88
2022-07-27T13:20:10.845Z,1.60
2022-07-27T13:22:39.475Z,2.88
2022-07-27T13:25:16.132Z,1.60
2022-07-27T13:27:45.255Z,1.40
2022-07-27T13:30:13.303Z,1.95
2022-07-27T13:32:40.615Z,1.30
2022-07-27T13:35:09.141Z,1.10
2022-07-27T13:37:35.599Z,1.52
2022-07-27T13:40:02.032Z,1.52
2022-07-27T13:42:28.629Z,1.33
2022-07-27T13:45:08.664Z,1.65
2022-07-27T13:47:36.320Z,1.50
2022-07-27T13:50:03.478Z,1.55
2022-07-27T13:52:30.042Z,1.63
2022-07-27T13:54:56.455Z,1.77
2022-07-27T13:57:23.504Z,1.40
2022-07-27T13:59:49.909Z,1.35
2022-07-27T14:02:16.448Z,1.30
2022-07-27T14:04:49.300Z,1.33
2022-07-27T14:07:15.793Z,1.38
2022-07-27T14:10:01.191Z,1.67
2022-07-27T14:12:27.693Z,1.60
2022-07-27T14:14:54.163Z,1.58
2022-07-27T14:17:20.617Z,1.65
2022-07-27T14:19:47.037Z,1.50
2022-07-27T14:22:13.465Z,1.73
2022-07-27T14:24:39.898Z,1.48
2022-07-27T14:27:06.677Z,1.50
2022-07-27T14:29:34.175Z,1.60
2022-07-27T14:32:01.123Z,1.00
2022-07-27T14:34:27.648Z,1.40
2022-07-27T14:36:54.073Z,1.50
2022-07-27T14:39:20.491Z,1.25
2022-07-27T14:41:46.919Z,2.35
2022-07-27T14:44:14.038Z,1.35
2022-07-27T14:46:40.592Z,1.30
2022-07-27T14:49:08.468Z,1.38
2022-07-27T14:51:35.782Z,1.35
2022-07-27T14:54:03.657Z,1.30
2022-07-27T14:56:30.155Z,2.03
2022-07-27T14:58:56.622Z,1.60
2022-07-27T15:01:23.150Z,1.23
2022-07-27T15:03:50.372Z,1.30
2022-07-27T15:06:17.295Z,1.70
2022-07-27T15:08:43.722Z,1.35
2022-07-27T15:11:10.142Z,1.55
2022-07-27T15:13:36.576Z,2.83
2022-07-27T15:16:03.298Z,1.17
2022-07-27T15:18:34.988Z,1.52
2022-07-27T15:21:13.079Z,1.60
2022-07-27T15:23:42.164Z,1.58
2022-07-27T15:26:08.660Z,2.47
2022-07-27T15:28:36.310Z,1.40
2022-07-27T15:31:02.885Z,1.50
2022-07-27T15:33:29.343Z,1.45
2022-07-27T15:35:56.403Z,1.45
2022-07-27T15:38:22.981Z,1.40
2022-07-27T15:40:49.434Z,1.50
2022-07-27T15:43:17.248Z,1.50
2022-07-27T15:45:47.645Z,1.60
2022-07-27T15:48:15.616Z,1.50
2022-07-27T15:50:45.363Z,1.55
2022-07-27T15:53:13.104Z,1.35
2022-07-27T15:55:39.554Z,1.38
2022-07-27T15:58:06.600Z,1.33
2022-07-27T16:00:39.146Z,1.63
2022-07-27T16:03:07.316Z,1.40
2022-07-27T16:05:33.984Z,1.30
2022-07-27T16:08:00.447Z,1.45
2022-07-27T16:10:29.469Z,1.33
2022-07-27T16:12:56.871Z,1.45
2022-07-27T16:15:43.445Z,1.40
2022-07-27T16:18:10.010Z,1.60
2022-07-27T16:20:36.731Z,1.88
2022-07-27T16:23:03.312Z,1.60
2022-07-27T16:26:02.834Z,1.52
2022-07-27T16:28:30.109Z,1.63
2022-07-27T16:30:57.790Z,1.60
2022-07-27T16:33:24.426Z,1.27
2022-07-27T16:35:51.056Z,1.48
2022-07-27T16:38:17.555Z,1.27
2022-07-27T16:40:43.966Z,1.23
2022-07-27T16:43:10.384Z,1.15
2022-07-27T16:45:37.455Z,1.70
2022-07-27T16:48:03.870Z,1.48
2022-07-27T16:50:30.273Z,1.20
2022-07-27T16:52:56.754Z,1.30
2022-07-27T16:55:23.707Z,1.58
2022-07-27T17:00:20.698Z,2.30
2022-07-27T17:02:47.366Z,1.88
2022-07-27T17:05:13.918Z,1.80
2022-07-27T17:07:41.330Z,2.08
2022-07-27T17:10:08.247Z,1.48
2022-07-27T17:12:39.082Z,1.50
2022-07-27T17:15:06.567Z,1.48
2022-07-27T17:17:32.980Z,1.45
2022-07-27T17:19:59.825Z,1.75
2022-07-27T17:22:26.275Z,1.48
2022-07-27T17:24:52.695Z,1.63
2022-07-27T17:27:19.142Z,1.48
2022-07-27T17:29:45.564Z,1.40
2022-07-27T17:32:12.006Z,1.67
2022-07-27T17:34:38.466Z,1.75
2022-07-27T17:37:04.903Z,1.20
2022-07-27T17:39:31.865Z,1.48
2022-07-27T17:41:58.470Z,1.58
2022-07-27T17:44:24.896Z,1.45
2022-07-27T17:46:51.419Z,1.13
2022-07-27T17:49:18.622Z,1.30
2022-07-27T17:51:45.347Z,1.42
2022-07-27T17:54:11.799Z,1.30
2022-07-27T17:56:38.279Z,1.48
2022-07-27T17:59:34.710Z,1.60
2022-07-27T18:01:52.663Z,2.10
2022-07-27T18:04:19.180Z,1.48
2022-07-27T18:06:45.679Z,1.50
2022-07-27T18:09:14.178Z,1.55
2022-07-27T18:11:41.062Z,1.25
2022-07-27T18:14:07.483Z,1.48
2022-07-27T18:16:40.195Z,1.50
2022-07-27T18:19:07.383Z,1.50
2022-07-27T18:21:34.776Z,2.05
2022-07-27T18:24:01.493Z,1.50
2022-07-27T18:26:28.019Z,2.03
2022-07-27T18:28:55.078Z,1.80
2022-07-27T18:31:21.617Z,2.25
2022-07-27T18:33:50.278Z,1.65
2022-07-27T18:36:17.684Z,1.80
2022-07-27T18:38:49.384Z,1.65
2022-07-27T18:41:19.875Z,1.92
2022-07-27T18:43:53.665Z,1.48
2022-07-27T18:46:23.823Z,1.52
2022-07-27T18:48:50.424Z,1.30
2022-07-27T18:51:17.297Z,1.88
2022-07-27T18:53:44.360Z,1.95
2022-07-27T18:56:11.195Z,2.20
2022-07-27T18:58:37.647Z,1.65
2022-07-27T19:01:04.270Z,1.70
2022-07-27T19:03:30.767Z,2.05
2022-07-27T19:05:58.787Z,1.83
2022-07-27T19:08:25.244Z,1.73
2022-07-27T19:10:51.872Z,1.42
2022-07-27T19:13:18.324Z,1.63
2022-07-27T19:15:45.276Z,1.65
2022-07-27T19:18:11.884Z,1.90
2022-07-27T19:20:38.313Z,1.55
2022-07-27T19:23:06.027Z,1.77
2022-07-27T19:25:33.730Z,2.15
2022-07-27T19:28:00.954Z,3.30
2022-07-27T19:30:27.753Z,6.25
2022-07-27T19:32:54.369Z,7.78
2022-07-27T19:35:20.801Z,13.35
2022-07-27T19:37:47.235Z,14.13
2022-07-27T19:40:42.625Z,12.48
2022-07-27T19:43:00.313Z,12.88
2022-07-27T19:45:26.801Z,13.57
2022-07-27T19:47:53.243Z,9.65
2022-07-27T19:50:19.748Z,7.85
2022-07-27T19:52:46.185Z,6.45
2022-07-27T19:55:12.638Z,6.20
2022-07-27T19:57:39.053Z,5.55
2022-07-27T20:00:07.716Z,5.47
2022-07-27T20:02:34.619Z,4.95
2022-07-27T20:05:01.148Z,3.50
2022-07-27T20:07:27.565Z,2.60
2022-07-27T20:09:54.002Z,2.05
2022-07-27T20:12:21.382Z,3.08
2022-07-27T20:14:48.063Z,2.17
2022-07-27T20:17:14.557Z,1.67
2022-07-27T20:19:41.068Z,1.95
2022-07-27T20:22:07.526Z,2.10
2022-07-27T20:24:33.967Z,1.50
2022-07-27T20:27:00.424Z,1.70
2022-07-27T20:29:29.538Z,1.70
2022-07-27T20:31:59.628Z,1.88
2022-07-27T20:34:26.161Z,2.10
2022-07-27T20:36:55.129Z,2.05
2022-07-27T20:39:21.977Z,1.90
2022-07-27T20:41:48.712Z,1.88
2022-07-27T20:44:15.185Z,2.25
2022-07-27T20:46:41.623Z,1.90
2022-07-27T20:49:08.076Z,1.92
2022-07-27T20:51:34.548Z,2.00
2022-07-27T20:54:00.978Z,1.88
2022-07-27T20:56:27.416Z,1.83
2022-07-27T20:58:53.986Z,2.33
2022-07-27T21:01:20.553Z,1.92
2022-07-27T21:03:47.050Z,1.67
2022-07-27T21:06:13.491Z,2.22
2022-07-27T21:08:45.996Z,2.38
2022-07-27T21:11:13.543Z,2.10
2022-07-27T21:13:40.302Z,2.08
2022-07-27T21:16:06.828Z,2.08
2022-07-27T21:18:33.545Z,2.15
2022-07-27T21:20:59.983Z,1.70
2022-07-27T21:23:44.856Z,2.45
2022-07-27T21:26:11.292Z,1.98
2022-07-27T21:28:41.927Z,1.77
2022-07-27T21:31:08.785Z,2.40
2022-07-27T21:33:39.628Z,1.83
2022-07-27T21:36:06.769Z,2.35
2022-07-27T21:38:33.193Z,2.10
2022-07-27T21:40:59.640Z,2.65
2022-07-27T21:43:26.071Z,2.22
2022-07-27T21:45:52.597Z,1.95
2022-07-27T21:48:19.131Z,2.03
2022-07-27T21:50:45.567Z,2.28
2022-07-27T21:53:12.024Z,2.53
2022-07-27T21:55:40.699Z,2.05
2022-07-27T21:58:07.272Z,2.15
2022-07-27T22:00:33.699Z,2.30
2022-07-27T22:03:00.127Z,2.00
2022-07-27T22:05:27.269Z,2.42
2022-07-27T22:07:53.717Z,2.05
2022-07-27T22:10:20.222Z,1.90
2022-07-27T22:12:46.771Z,2.17
2022-07-27T22:15:13.291Z,1.92
2022-07-27T22:17:46.233Z,1.77
2022-07-27T22:20:17.375Z,2.03
2022-07-27T22:22:43.987Z,2.00
2022-07-27T22:25:10.630Z,2.10
2022-07-27T22:27:37.060Z,1.83
2022-07-27T22:30:04.027Z,1.73
2022-07-27T22:32:30.482Z,2.03
2022-07-27T22:34:56.911Z,1.70
2022-07-27T22:37:23.339Z,1.90
2022-07-27T22:39:49.772Z,1.88
2022-07-27T22:42:16.224Z,1.85
2022-07-27T22:44:43.153Z,1.80
2022-07-27T22:47:10.136Z,1.65
2022-07-27T22:49:37.198Z,2.45
2022-07-27T22:52:07.079Z,1.58
2022-07-27T22:54:37.568Z,1.80
2022-07-27T22:57:05.747Z,2.25
2022-07-27T22:59:32.656Z,2.08
2022-07-27T23:01:59.213Z,1.73
2022-07-27T23:04:25.898Z,1.90
2022-07-27T23:06:52.345Z,1.95
2022-07-27T23:09:18.895Z,1.85
2022-07-27T23:11:45.576Z,1.70
2022-07-27T23:14:12.906Z,2.00
2022-07-27T23:16:39.870Z,2.25
2022-07-27T23:19:06.363Z,1.85
2022-07-27T23:21:32.791Z,2.33
2022-07-27T23:23:59.360Z,1.90
2022-07-27T23:26:27.429Z,1.85
2022-07-27T23:28:54.219Z,2.00
2022-07-27T23:31:21.360Z,2.22
2022-07-27T23:33:47.929Z,1.90
2022-07-27T23:36:15.031Z,1.65
2022-07-27T23:38:41.491Z,1.80
2022-07-27T23:41:08.299Z,1.90
2022-07-27T23:43:34.756Z,2.00
2022-07-27T23:46:01.242Z,2.30
2022-07-27T23:48:28.672Z,2.38
2022-07-27T23:50:56.017Z,1.90
2022-07-27T23:53:22.650Z,1.77
2022-07-27T23:55:49.083Z,2.78
2022-07-27T23:58:15.522Z,2.08
